EBBE

Beauvechain Air Base Airport

Beauvechain, Belgium
TAF AMD EBBE 221144Z 2213/2222 21007KT 4000 -SN SCT012 BKN018 TEMPO 2214/2217 6000 SCT015 BKN020 TEMPO 2213/2215 2000 SN SCT007 BKN012 PROB30 TEMPO 2213/2214 1500 SN SCT005 BKN010 TEMPO 2218/2222 3000 -SN SCT010 BKN015
Issued Valid From Valid To
Jan-22 @ 11:44 UTC
(5 hours ago)
Jan-22 @ 13:00 UTC
(4 hours ago)
Jan-22 @ 22:00 UTC
(in 5 hours)
Jan-22 @ 13:00 to Jan-22 @ 22:00
TAF AMD EBBE 221144Z 2213/2222 21007KT 4000 -SN SCT012 BKN018
Wind Visibility Clouds Conditions
210° at 7 knots 4,007 meters
  • Scattered at 1,200' AGL
  • Broken at 1,800' AGL
  • Light Snow
Expired Click to View Jan-22 @ 13:00 to Jan-22 @ 14:00
PROB30 TEMPO 2213/2214 1500 SN SCT005 BKN010
Visibility Clouds Conditions
1,497 meters
  • Scattered at 500' AGL
  • Broken at 1,000' AGL
  • Snow
Expired Click to View Jan-22 @ 13:00 to Jan-22 @ 15:00
TEMPO 2213/2215 2000 SN SCT007 BKN012
Visibility Clouds Conditions
1,996 meters
  • Scattered at 700' AGL
  • Broken at 1,200' AGL
  • Snow
Expired Click to View Jan-22 @ 14:00 to Jan-22 @ 17:00
TEMPO 2214/2217 6000 SCT015 BKN020
Visibility Clouds
6,003 meters
  • Scattered at 1,500' AGL
  • Broken at 2,000' AGL
Temporary Jan-22 @ 18:00 to Jan-22 @ 22:00
TEMPO 2218/2222 3000 -SN SCT010 BKN015
Visibility Clouds Conditions
2,993 meters
  • Scattered at 1,000' AGL
  • Broken at 1,500' AGL
  • Light Snow
TAF AMD EBBE 221144Z 2213/2222 21007KT 4000 -SN SCT012 BKN018 TEMPO 2214/2217 6000 SCT015 BKN020 TEMPO 2213/2215 2000 SN SCT007 BKN012 PROB30 TEMPO 2213/2214 1500 SN SCT005 BKN010 TEMPO 2218/2222 3000 -SN SCT010 BKN015
Issued Jan-22 @ 11:44 UTC
(5 hours ago)
Valid From Jan-22 @ 13:00 UTC
(4 hours ago)
Valid To Jan-22 @ 22:00 UTC
(in 5 hours)
Jan-22 @ 13:00 - Jan-22 @ 22:00
Wind Visibility
210° at 7 knots 4,007 meters
Clouds
  • Scattered at 1,200' AGL
  • Broken at 1,800' AGL
Conditions
  • Light Snow
Jan-22 @ 13:00 - Jan-22 @ 14:00
Clouds
  • Scattered at 500' AGL
  • Broken at 1,000' AGL
Conditions
  • Snow
Jan-22 @ 13:00 - Jan-22 @ 15:00
Clouds
  • Scattered at 700' AGL
  • Broken at 1,200' AGL
Conditions
  • Snow
Jan-22 @ 14:00 - Jan-22 @ 17:00
Clouds
  • Scattered at 1,500' AGL
  • Broken at 2,000' AGL
Temporary Jan-22 @ 18:00 - Jan-22 @ 22:00
Clouds
  • Scattered at 1,000' AGL
  • Broken at 1,500' AGL
Conditions
  • Light Snow